Time;durP1;ratioP1;P1;durP2;ratioP2;P2;SDS_P1;SDS_P2;PMS_P1;PMS_P2;Temp;Humidity;BMP_temperature;BMP_pressure;BME280_temperature;BME280_humidity;BME280_pressure;Samples;Min_cycle;Max_cycle;Signal;HPM_P1;HPM_P2
2023/06/02 00:04:06;;;;;;;10.07;3.73;;;;;;;14.42;75.11;100557.27;5041960;57;1140897;-68
2023/06/02 00:09:13;;;;;;;7.57;3.93;;;;;;;14.31;74.32;100555.58;5042153;56;1141159;-69
2023/06/02 00:14:19;;;;;;;9.27;3.73;;;;;;;14.16;74.32;100557.48;5061879;56;1139100;-68
2023/06/02 00:19:25;;;;;;;12.93;4.10;;;;;;;14.01;74.77;100557.07;5042158;57;1139018;-68
2023/06/02 00:24:31;;;;;;;10.18;4.08;;;;;;;13.81;75.20;100556.21;5054273;56;1141090;-67
2023/06/02 00:29:37;;;;;;;8.77;3.70;;;;;;;13.64;75.98;100568.36;5111817;56;1140906;-70
2023/06/02 00:34:43;;;;;;;6.40;3.70;;;;;;;13.66;76.88;100564.23;5096500;56;1138724;-72
2023/06/02 00:39:49;;;;;;;11.48;5.20;;;;;;;13.80;77.98;100561.66;5126994;56;1139000;-71
2023/06/02 00:44:54;;;;;;;10.40;4.47;;;;;;;14.00;77.99;100562.03;5146663;56;1140957;-67
2023/06/02 00:50:01;;;;;;;10.03;4.43;;;;;;;14.05;77.69;100561.14;5139574;56;1140858;-67
2023/06/02 00:55:07;;;;;;;13.03;4.80;;;;;;;14.00;77.99;100548.74;5118449;56;1140939;-66
2023/06/02 01:00:14;;;;;;;8.93;3.77;;;;;;;14.12;78.32;100550.76;5113410;56;1141077;-67
2023/06/02 01:05:20;;;;;;;6.27;4.30;;;;;;;14.02;78.30;100557.42;5087392;56;1138880;-67
2023/06/02 01:10:27;;;;;;;12.13;4.60;;;;;;;13.82;78.69;100544.60;5042124;56;1138839;-64
2023/06/02 01:15:32;;;;;;;14.03;4.47;;;;;;;13.73;79.21;100532.16;5041755;57;1140833;-67
2023/06/02 01:20:51;;;;;;;14.10;4.37;;;;;;;13.73;80.47;100534.81;5061654;57;1141172;-68
2023/06/02 01:25:58;;;;;;;10.18;4.25;;;;;;;13.71;81.04;100534.95;5079533;56;1141185;-70
2023/06/02 01:31:17;;;;;;;10.20;3.13;;;;;;;13.54;81.32;100537.44;5123473;56;1141154;-66
2023/06/02 01:36:25;;;;;;;7.25;3.80;;;;;;;13.32;81.93;100541.16;5102261;56;1140921;-68
2023/06/02 01:41:34;;;;;;;8.80;3.63;;;;;;;13.06;83.09;100546.09;5146494;56;1138692;-66
2023/06/02 01:46:41;;;;;;;10.90;3.83;;;;;;;12.96;83.73;100539.91;5056970;56;1138637;-71
2023/06/02 01:51:47;;;;;;;9.88;3.77;;;;;;;12.96;84.64;100545.22;5041562;57;1140742;-66
2023/06/02 01:56:53;;;;;;;9.63;4.30;;;;;;;12.93;85.10;100547.65;5062048;57;1138994;-70
2023/06/02 02:01:58;;;;;;;12.95;4.28;;;;;;;12.89;86.06;100553.34;5041912;57;1139118;-65
2023/06/02 02:07:03;;;;;;;12.17;3.93;;;;;;;12.81;86.87;100551.38;5041686;57;1141366;-66
2023/06/02 02:12:08;;;;;;;14.47;4.47;;;;;;;12.84;88.01;100558.20;5042135;57;1140934;-72
2023/06/02 02:17:14;;;;;;;12.00;4.53;;;;;;;12.87;88.84;100549.98;5061196;57;1141183;-67
2023/06/02 02:22:20;;;;;;;10.13;4.28;;;;;;;12.98;89.50;100559.20;5041187;57;1141218;-68
2023/06/02 02:27:25;;;;;;;10.40;3.83;;;;;;;13.05;89.60;100566.97;5103042;56;1140819;-68
2023/06/02 02:32:33;;;;;;;14.10;3.60;;;;;;;13.15;89.74;100572.34;5112902;56;1141218;-67
2023/06/02 02:37:38;;;;;;;9.70;4.00;;;;;;;13.14;90.41;100565.34;5087272;56;1140709;-67
2023/06/02 02:42:44;;;;;;;14.30;3.67;;;;;;;13.12;91.00;100572.12;5043333;56;1139079;-68
2023/06/02 02:47:50;;;;;;;11.15;4.67;;;;;;;13.14;91.70;100570.14;5138445;56;1140999;-67
2023/06/02 02:52:56;;;;;;;11.25;4.17;;;;;;;13.14;92.19;100574.12;4924695;57;1140825;-68
2023/06/02 02:58:03;;;;;;;9.00;4.10;;;;;;;13.14;92.75;100580.77;5041881;57;1140729;-66
2023/06/02 03:03:09;;;;;;;16.73;4.80;;;;;;;13.13;93.18;100590.22;5064122;56;1138836;-65
2023/06/02 03:08:17;;;;;;;10.50;3.93;;;;;;;13.12;93.22;100589.86;5145737;56;1140799;-69
2023/06/02 03:13:22;;;;;;;10.77;4.50;;;;;;;13.07;93.69;100590.74;5124444;56;1140849;-71
2023/06/02 03:18:29;;;;;;;15.17;4.93;;;;;;;13.01;94.26;100590.77;5125964;56;1140867;-70
2023/06/02 03:23:36;;;;;;;16.87;5.03;;;;;;;12.93;95.80;100595.92;5089436;56;1140839;-68
2023/06/02 03:28:42;;;;;;;14.27;5.43;;;;;;;12.84;96.20;100600.67;5125540;56;1140628;-65
2023/06/02 03:33:49;;;;;;;13.50;4.80;;;;;;;12.77;97.04;100609.66;5074134;56;1140919;-67
2023/06/02 03:38:56;;;;;;;14.70;5.35;;;;;;;12.82;97.30;100601.31;5134091;56;1141131;-68
2023/06/02 03:44:04;;;;;;;11.63;5.30;;;;;;;12.83;97.45;100601.16;5089853;56;1140984;-69
2023/06/02 03:49:10;;;;;;;11.37;4.67;;;;;;;12.81;98.30;100599.15;5052161;57;1140726;-64
2023/06/02 03:54:16;;;;;;;15.60;5.00;;;;;;;12.84;98.46;100603.33;5051602;57;1140740;-69
2023/06/02 03:59:21;;;;;;;12.97;4.90;;;;;;;12.88;98.84;100607.41;5071775;57;1140744;-69
2023/06/02 04:04:27;;;;;;;12.60;5.37;;;;;;;12.88;99.12;100619.35;5049864;57;1141051;-66
2023/06/02 04:09:34;;;;;;;8.90;3.80;;;;;;;12.83;100.00;100622.91;5048021;57;1140773;-64
2023/06/02 04:14:40;;;;;;;15.53;5.07;;;;;;;12.84;100.00;100625.89;5067981;57;1140805;-69
2023/06/02 04:19:46;;;;;;;11.90;4.40;;;;;;;12.83;100.00;100627.70;4994299;57;1142776;-65
2023/06/02 04:24:51;;;;;;;14.28;5.00;;;;;;;12.90;100.00;100634.18;5033694;57;1142640;-66
2023/06/02 04:29:58;;;;;;;10.40;5.05;;;;;;;12.97;100.00;100636.68;5139088;56;1142882;-67
2023/06/02 04:35:05;;;;;;;10.43;4.63;;;;;;;13.07;100.00;100643.36;5105037;56;1197688;-68
2023/06/02 04:40:14;;;;;;;13.07;5.00;;;;;;;12.95;100.00;100655.03;5107784;55;1142822;-67
2023/06/02 04:45:21;;;;;;;12.17;5.23;;;;;;;12.95;100.00;100655.03;5075136;56;1142968;-66
2023/06/02 04:50:28;;;;;;;16.40;6.50;;;;;;;13.14;100.00;100660.95;5061504;56;1142914;-71
2023/06/02 04:55:34;;;;;;;16.37;7.47;;;;;;;13.27;100.00;100661.12;5041368;57;1143084;-66
2023/06/02 05:00:41;;;;;;;14.67;6.27;;;;;;;13.43;100.00;100662.44;5041514;57;1142820;-70
2023/06/02 05:05:47;;;;;;;9.53;4.70;;;;;;;13.53;100.00;100657.50;5060811;57;1142867;-69
2023/06/02 05:10:53;;;;;;;17.13;4.90;;;;;;;13.60;100.00;100665.28;5040636;57;1140703;-69
2023/06/02 05:15:59;;;;;;;6.10;2.77;;;;;;;13.65;100.00;100668.87;5041345;57;1142960;-64
2023/06/02 05:21:06;;;;;;;6.17;2.43;;;;;;;13.62;100.00;100673.96;5052573;57;1140825;-68
2023/06/02 05:26:11;;;;;;;5.17;2.20;;;;;;;13.61;100.00;100688.22;5112339;56;1140956;-67
2023/06/02 05:31:18;;;;;;;12.20;2.37;;;;;;;13.54;100.00;100692.89;5062948;56;1140783;-69
2023/06/02 05:36:25;;;;;;;17.70;2.27;;;;;;;13.52;100.00;100700.16;5040756;57;1142901;-67
2023/06/02 05:41:32;;;;;;;43.90;3.30;;;;;;;13.47;93.69;100710.33;5061409;57;1142686;-67
2023/06/02 05:46:39;;;;;;;3.67;1.60;;;;;;;13.45;92.36;100726.40;5052263;57;1140766;-70
2023/06/02 05:51:45;;;;;;;8.50;1.80;;;;;;;13.40;88.11;100726.46;5052709;57;1138546;-70
2023/06/02 05:56:52;;;;;;;10.23;2.05;;;;;;;13.38;87.91;100733.23;5072505;57;1139014;-68
2023/06/02 06:01:59;;;;;;;8.63;2.42;;;;;;;13.38;87.08;100734.56;5054317;56;1141049;-67
2023/06/02 06:07:06;;;;;;;6.20;2.40;;;;;;;13.49;87.81;100735.80;5105982;56;1138871;-67
2023/06/02 06:12:12;;;;;;;11.83;2.10;;;;;;;13.61;86.28;100737.39;5126346;56;1138690;-68
2023/06/02 06:17:18;;;;;;;7.42;2.10;;;;;;;13.97;86.92;100738.66;5157210;56;1141021;-66
2023/06/02 06:22:23;;;;;;;7.27;2.77;;;;;;;14.26;84.79;100741.38;5111080;56;1138597;-69
2023/06/02 06:27:29;;;;;;;27.27;2.77;;;;;;;14.47;84.31;100747.97;5070878;56;1138517;-67
2023/06/02 06:32:36;;;;;;;7.57;1.80;;;;;;;14.65;82.11;100754.30;5101516;56;1140872;-67
2023/06/02 06:37:42;;;;;;;6.30;2.10;;;;;;;14.77;80.25;100760.31;5113995;56;1138769;-66
2023/06/02 06:42:47;;;;;;;5.83;2.40;;;;;;;14.73;79.11;100759.75;5070778;56;1138756;-67
2023/06/02 06:47:55;;;;;;;9.00;1.70;;;;;;;14.72;78.04;100771.38;4978689;58;1138856;-70
2023/06/02 06:53:03;;;;;;;6.62;1.70;;;;;;;14.73;77.08;100772.22;5126122;56;1138710;-68
2023/06/02 06:58:09;;;;;;;9.20;2.30;;;;;;;14.70;76.96;100782.65;5124994;56;1138945;-69
2023/06/02 07:03:15;;;;;;;3.90;1.47;;;;;;;15.02;76.28;100792.19;5052909;56;1138649;-68
2023/06/02 07:08:20;;;;;;;5.20;1.70;;;;;;;15.02;76.28;100792.19;5061046;56;1138938;-65
2023/06/02 07:13:27;;;;;;;5.70;1.73;;;;;;;15.14;73.33;100807.03;5041658;57;1138770;-67
2023/06/02 07:18:33;;;;;;;15.13;2.50;;;;;;;15.14;73.33;100807.03;5041725;57;1138714;-65
2023/06/02 07:23:38;;;;;;;13.93;2.33;;;;;;;15.19;74.17;100824.78;5061259;57;1140605;-67
2023/06/02 07:28:44;;;;;;;7.30;2.27;;;;;;;15.18;72.11;100830.25;5105136;56;1140886;-69
2023/06/02 07:33:50;;;;;;;10.03;3.50;;;;;;;15.12;72.06;100839.67;5041846;57;1138949;-65
2023/06/02 07:38:55;;;;;;;14.33;2.40;;;;;;;15.19;71.93;100835.93;5061799;57;1142447;-66
2023/06/02 07:44:01;;;;;;;7.33;1.70;;;;;;;15.38;71.97;100840.77;5042532;56;1140816;-65
2023/06/02 07:49:07;;;;;;;5.70;1.57;;;;;;;15.61;71.64;100847.97;5043019;56;1138593;-67
2023/06/02 07:54:12;;;;;;;7.62;1.62;;;;;;;15.78;70.22;100851.73;5088995;56;1138698;-68
2023/06/02 07:59:19;;;;;;;2.57;1.53;;;;;;;15.86;69.82;100851.86;5114228;56;1138937;-64
2023/06/02 08:04:25;;;;;;;5.67;1.90;;;;;;;16.21;70.60;100851.64;5106259;56;1138900;-68
2023/06/02 08:09:31;;;;;;;12.50;2.10;;;;;;;16.50;68.90;100847.00;5126589;56;1138789;-67
2023/06/02 08:14:37;;;;;;;21.97;2.13;;;;;;;16.59;67.90;100854.63;5146440;56;1140609;-69
2023/06/02 08:19:42;;;;;;;4.60;1.73;;;;;;;16.58;64.95;100858.28;5125902;56;1140908;-70
2023/06/02 08:24:48;;;;;;;5.43;1.57;;;;;;;16.59;65.99;100863.48;5072939;56;1138921;-68
2023/06/02 08:29:56;;;;;;;2.85;1.47;;;;;;;16.57;66.43;100868.13;5123601;55;1138650;-70
2023/06/02 08:35:02;;;;;;;3.55;1.85;;;;;;;16.73;65.25;100870.17;5042161;57;1138743;-64
2023/06/02 08:40:11;;;;;;;8.90;2.57;;;;;;;16.91;63.76;100871.54;5042181;57;1138748;-65
2023/06/02 08:45:20;;;;;;;5.70;2.60;;;;;;;17.08;61.17;100865.37;5042528;56;1138741;-66
2023/06/02 08:50:28;;;;;;;7.17;1.80;;;;;;;17.03;61.60;100867.16;5062039;56;1138919;-69
2023/06/02 08:55:39;;;;;;;7.33;2.30;;;;;;;16.94;62.10;100873.91;5041016;57;1138750;-67
2023/06/02 09:00:42;;;;;;;8.60;1.90;;;;;;;17.20;62.47;100877.01;5092088;56;1138975;-68
2023/06/02 09:05:49;;;;;;;7.40;1.53;;;;;;;17.35;63.11;100876.47;5135089;56;1138697;-66
2023/06/02 09:10:54;;;;;;;8.15;1.57;;;;;;;17.45;61.63;100885.23;5111351;56;1139021;-69
2023/06/02 09:16:02;;;;;;;42.10;3.23;;;;;;;17.41;61.07;100888.73;5126615;56;1138637;-67
2023/06/02 09:21:14;;;;;;;21.20;2.22;;;;;;;17.44;61.06;100899.59;5114532;56;1140894;-74
2023/06/02 09:26:22;;;;;;;7.80;1.83;;;;;;;17.53;60.57;100907.55;5101678;56;1140943;-70
2023/06/02 09:31:30;;;;;;;36.43;2.63;;;;;;;17.63;60.50;100907.95;5060466;56;1138847;-76
2023/06/02 09:36:36;;;;;;;2.80;1.40;;;;;;;17.89;59.04;100908.84;5046895;56;1140963;-74
2023/06/02 09:41:43;;;;;;;10.70;1.90;;;;;;;17.78;57.35;100924.66;5143355;56;1138523;-73
2023/06/02 09:46:50;;;;;;;15.75;1.60;;;;;;;17.58;55.55;100931.98;5128906;56;1140641;-74
2023/06/02 09:51:58;;;;;;;5.80;2.35;;;;;;;17.61;58.92;100928.16;5147310;55;1140786;-71
2023/06/02 09:57:05;;;;;;;7.10;1.42;;;;;;;17.76;56.78;100937.84;5128840;56;1138555;-77
2023/06/02 10:02:13;;;;;;;2.00;1.13;;;;;;;17.72;56.57;100944.00;5066075;56;1138826;-69
2023/06/02 10:07:43;;;;;;;10.00;2.17;;;;;;;18.01;56.18;100932.20;5142543;56;1138824;-74
2023/06/02 10:13:06;;;;;;;10.20;1.67;;;;;;;18.11;53.96;100939.61;5176178;56;1140768;-73
2023/06/02 10:18:34;;;;;;;11.17;1.93;;;;;;;18.10;53.93;100928.56;5041214;56;1140667;-72
2023/06/02 10:23:50;;;;;;;3.57;1.97;;;;;;;17.86;51.43;100939.95;5086502;56;1140827;-74
2023/06/02 10:28:56;;;;;;;19.00;1.30;;;;;;;18.15;52.27;100939.15;5160066;56;1138525;-71
2023/06/02 10:34:03;;;;;;;4.87;1.40;;;;;;;18.63;49.48;100940.95;5132686;56;1140771;-75
2023/06/02 10:39:44;;;;;;;15.07;1.87;;;;;;;19.00;48.45;100934.70;5133006;56;1138851;-76
2023/06/02 10:44:52;;;;;;;5.24;1.62;;;;;;;19.25;46.91;100932.41;5051083;56;1140741;-74
2023/06/02 10:50:06;;;;;;;3.75;1.50;;;;;;;19.51;45.30;100934.16;5061777;57;1138594;-76
2023/06/02 10:55:16;;;;;;;2.10;1.20;;;;;;;19.65;45.81;100939.70;5125051;56;1138774;-73
2023/06/02 11:00:46;;;;;;;6.73;1.50;;;;;;;19.81;44.84;100938.86;5119739;56;1138577;-72
2023/06/02 11:05:54;;;;;;;7.28;1.72;;;;;;;19.98;43.46;100939.69;5119151;56;1138743;-72
2023/06/02 11:11:01;;;;;;;13.85;2.27;;;;;;;20.15;43.36;100945.87;5108658;56;1138636;-74
2023/06/02 11:16:11;;;;;;;7.17;1.32;;;;;;;20.23;40.18;100939.13;5118886;56;1140790;-74
2023/06/02 11:21:23;;;;;;;3.15;1.10;;;;;;;20.07;39.73;100944.53;5118986;56;1138713;-72
2023/06/02 11:26:29;;;;;;;8.97;2.00;;;;;;;20.29;43.74;100950.55;5139890;56;1138559;-74
2023/06/02 11:31:35;;;;;;;9.13;1.57;;;;;;;20.29;43.74;100950.55;5051342;56;1138573;-72
2023/06/02 11:36:42;;;;;;;41.68;3.30;;;;;;;20.29;39.89;100959.45;5034937;56;1138794;-75
2023/06/02 11:41:57;;;;;;;7.83;1.17;;;;;;;20.43;39.30;100964.64;5096138;56;1140573;-75
2023/06/02 11:47:03;;;;;;;8.93;1.75;;;;;;;20.62;38.55;100969.60;5052802;56;1139180;-72
2023/06/02 11:52:10;;;;;;;26.73;2.20;;;;;;;20.62;35.46;100979.55;5119145;56;1138730;-73
2023/06/02 11:57:29;;;;;;;8.70;1.60;;;;;;;20.67;36.73;100976.66;5124142;56;1141028;-77
2023/06/02 12:02:35;;;;;;;16.20;2.20;;;;;;;20.68;35.44;100977.48;5146064;56;1138686;-76
2023/06/02 12:07:42;;;;;;;1.77;1.20;;;;;;;20.70;33.87;100980.84;5059516;56;1140707;-73
2023/06/02 12:12:48;;;;;;;20.80;1.82;;;;;;;20.61;35.59;100982.73;5058568;56;1138590;-74
2023/06/02 12:17:53;;;;;;;10.05;1.67;;;;;;;20.61;31.65;100983.24;5145876;56;1140922;-75
2023/06/02 12:22:59;;;;;;;7.50;1.15;;;;;;;20.59;31.80;100982.06;5123656;56;1140845;-76
2023/06/02 12:28:15;;;;;;;1.87;0.90;;;;;;;20.74;32.81;100988.91;5096279;56;1138717;-72
2023/06/02 12:33:20;;;;;;;4.92;1.20;;;;;;;20.92;31.53;100989.52;5042338;57;1138648;-74
2023/06/02 12:38:27;;;;;;;2.85;0.93;;;;;;;21.13;31.73;100990.73;4978861;58;1138629;-76
2023/06/02 12:43:32;;;;;;;13.93;1.25;;;;;;;21.22;29.90;100990.57;5072135;56;1138897;-75
2023/06/02 12:48:41;;;;;;;1.67;0.78;;;;;;;21.24;28.13;100993.05;5126661;56;1140691;-74
2023/06/02 12:53:46;;;;;;;10.15;0.85;;;;;;;21.27;27.81;100989.52;5146694;56;1138958;-72
2023/06/02 12:58:53;;;;;;;6.25;0.70;;;;;;;21.14;27.72;100993.26;5137330;56;1140963;-74
2023/06/02 13:03:59;;;;;;;1.72;0.60;;;;;;;21.25;29.76;100988.01;5119842;56;1138557;-73
2023/06/02 13:09:05;;;;;;;16.60;1.12;;;;;;;21.50;29.04;100988.72;5140090;56;1138488;-76
2023/06/02 13:14:12;;;;;;;11.17;1.53;;;;;;;21.57;28.02;100982.93;5119561;56;1140827;-73
2023/06/02 13:19:18;;;;;;;0.70;0.70;;;;;;;21.59;27.30;100999.23;5119781;56;1141015;-74
2023/06/02 13:24:24;;;;;;;5.55;1.00;;;;;;;21.51;27.27;100995.78;5139401;56;1138956;-76
2023/06/02 13:29:29;;;;;;;5.58;1.15;;;;;;;21.51;26.31;100995.27;5119773;56;1138812;-77
2023/06/02 13:34:35;;;;;;;2.10;0.78;;;;;;;21.53;25.47;101005.86;5073841;56;1138582;-74
2023/06/02 13:39:41;;;;;;;21.20;1.65;;;;;;;21.48;26.85;101011.77;5122679;56;1138604;-72
2023/06/02 13:44:46;;;;;;;24.77;1.27;;;;;;;21.55;26.98;101008.67;5071822;56;1140615;-75
2023/06/02 13:49:52;;;;;;;6.75;1.20;;;;;;;21.69;26.15;101011.94;5119485;56;1140745;-73
2023/06/02 13:54:57;;;;;;;3.85;0.80;;;;;;;21.66;25.19;101019.56;5139428;56;1138912;-74
2023/06/02 14:00:03;;;;;;;4.08;0.80;;;;;;;21.62;25.43;101028.50;5122809;55;1138632;-76
2023/06/02 14:05:11;;;;;;;4.93;0.90;;;;;;;21.66;26.07;101030.33;5125119;56;1138812;-73
2023/06/02 14:10:16;;;;;;;9.07;1.30;;;;;;;21.56;24.50;101027.85;5126231;56;1138920;-73
2023/06/02 14:15:22;;;;;;;5.10;1.00;;;;;;;21.63;26.39;101023.95;5146225;56;1138774;-72
2023/06/02 14:20:27;;;;;;;116.50;6.60;;;;;;;21.63;25.35;101031.52;5126101;56;1138581;-77
2023/06/02 14:25:33;;;;;;;4.85;1.15;;;;;;;21.64;24.47;101039.09;5114471;56;1143057;-70
2023/06/02 14:30:39;;;;;;;4.12;0.90;;;;;;;21.51;23.60;101036.15;5146521;56;1139183;-76
2023/06/02 14:35:45;;;;;;;12.45;1.32;;;;;;;21.49;25.47;101038.17;5073903;56;1138658;-71
2023/06/02 14:40:50;;;;;;;21.07;1.95;;;;;;;21.48;22.76;101033.30;5041120;57;1141047;-71
2023/06/02 14:45:57;;;;;;;12.37;0.88;;;;;;;21.33;24.58;101037.25;5118509;56;1140905;-74
2023/06/02 14:51:03;;;;;;;2.47;0.85;;;;;;;21.40;24.10;101041.41;5126320;56;1140672;-74
2023/06/02 14:56:09;;;;;;;2.03;0.40;;;;;;;21.55;24.98;101046.36;5126273;56;1138560;-70
2023/06/02 15:01:15;;;;;;;3.33;0.70;;;;;;;21.57;23.44;101036.77;5131385;56;1138611;-73
2023/06/02 15:06:20;;;;;;;2.30;0.80;;;;;;;21.55;24.71;101040.98;5132091;56;1138565;-72
2023/06/02 15:11:26;;;;;;;39.75;20.15;;;;;;;21.62;24.72;101040.61;5042865;56;1138769;-72
2023/06/02 15:16:34;;;;;;;6.95;1.77;;;;;;;21.54;23.04;101046.03;5108966;56;1142967;-70
2023/06/02 15:21:41;;;;;;;17.35;1.10;;;;;;;21.37;22.87;101052.55;5114104;56;1138907;-75
2023/06/02 15:26:47;;;;;;;3.12;0.85;;;;;;;21.44;24.05;101047.27;5030908;56;1140747;-70
2023/06/02 15:31:52;;;;;;;4.97;0.88;;;;;;;21.48;23.67;101052.64;5023460;56;1138721;-71
2023/06/02 15:36:58;;;;;;;6.12;0.90;;;;;;;21.44;23.74;101053.50;5129057;56;1138627;-72
2023/06/02 15:42:04;;;;;;;8.30;0.93;;;;;;;21.34;23.75;101052.38;5096958;56;1138967;-73
2023/06/02 15:47:10;;;;;;;2.60;0.87;;;;;;;21.23;23.35;101047.91;5079350;56;1138825;-70
2023/06/02 15:52:16;;;;;;;6.42;1.00;;;;;;;21.24;24.38;101049.55;5086209;56;1138872;-73
2023/06/02 15:57:21;;;;;;;4.05;0.60;;;;;;;21.28;23.73;101046.85;5124751;56;1138680;-72
2023/06/02 16:02:27;;;;;;;10.88;2.70;;;;;;;21.22;24.29;101055.14;5127654;55;1138577;-73
2023/06/02 16:07:33;;;;;;;11.45;1.37;;;;;;;21.13;23.80;101056.64;5107399;56;1140752;-74
2023/06/02 16:12:38;;;;;;;10.70;2.87;;;;;;;21.06;24.69;101053.33;5097156;56;1140684;-80
2023/06/02 16:17:44;;;;;;;11.70;1.02;;;;;;;20.97;25.16;101058.38;4969236;57;1140679;-78
2023/06/02 16:22:50;;;;;;;6.97;1.80;;;;;;;20.85;25.58;101064.30;5106322;56;1140683;-74
2023/06/02 16:27:55;;;;;;;2.95;0.93;;;;;;;20.79;26.63;101063.13;5102623;56;1138543;-76
2023/06/02 16:33:01;;;;;;;3.36;1.04;;;;;;;20.80;26.17;101064.81;5066763;55;1138600;-76
2023/06/02 16:38:07;;;;;;;11.00;3.30;;;;;;;20.84;27.04;101074.73;4942920;58;1138759;-74
2023/06/02 16:43:18;;;;;;;4.17;1.30;;;;;;;20.76;27.05;101078.29;5086725;56;1141013;-72
2023/06/02 16:48:20;;;;;;;6.62;1.47;;;;;;;20.59;26.96;101088.73;5113959;56;1138836;-71
2023/06/02 16:53:27;;;;;;;25.85;1.57;;;;;;;20.37;27.33;101090.25;5054306;56;1138848;-71
2023/06/02 16:58:33;;;;;;;7.83;1.55;;;;;;;20.10;27.39;101093.23;5052465;56;1140791;-75
2023/06/02 17:03:39;;;;;;;3.00;1.07;;;;;;;19.93;28.07;101097.25;5074731;55;1138862;-73
2023/06/02 17:08:45;;;;;;;10.43;2.37;;;;;;;19.87;28.83;101107.29;5187342;55;1138764;-75
2023/06/02 17:13:51;;;;;;;9.43;2.12;;;;;;;19.76;28.84;101108.95;5100494;55;1140795;-76
2023/06/02 17:18:57;;;;;;;4.08;1.08;;;;;;;19.66;29.14;101110.45;5175525;55;1138766;-76
2023/06/02 17:24:04;;;;;;;4.90;2.60;;;;;;;19.50;29.26;101124.31;5144041;54;1138798;-71
2023/06/02 17:29:10;;;;;;;7.17;2.10;;;;;;;19.37;29.91;101133.28;5128260;55;1138561;-75
2023/06/02 17:34:15;;;;;;;4.40;1.13;;;;;;;19.42;30.48;101133.62;5144550;55;1138680;-76
2023/06/02 17:39:21;;;;;;;3.20;1.03;;;;;;;19.38;30.86;101134.47;5118687;55;1138673;-72
2023/06/02 17:44:27;;;;;;;5.47;1.67;;;;;;;19.30;30.64;101144.64;5126053;55;1138683;-74
2023/06/02 17:49:32;;;;;;;2.30;1.57;;;;;;;19.13;30.24;101148.23;5076441;55;1138652;-71
2023/06/02 17:54:38;;;;;;;6.45;1.10;;;;;;;19.03;30.90;101150.70;5202102;55;1138706;-76
2023/06/02 17:59:45;;;;;;;7.33;1.22;;;;;;;18.92;31.07;101151.31;5141294;56;1138570;-75
2023/06/02 18:04:52;;;;;;;2.27;1.75;;;;;;;18.74;31.12;101162.57;4991358;56;1138899;-76
2023/06/02 18:09:58;;;;;;;20.65;2.83;;;;;;;18.57;31.59;101164.24;5104425;55;1138875;-77
2023/06/02 18:15:05;;;;;;;25.17;11.37;;;;;;;18.47;31.82;101173.38;5045120;56;1140815;-77
2023/06/02 18:20:12;;;;;;;22.80;7.43;;;;;;;18.35;31.88;101182.11;5039588;56;1142842;-75
2023/06/02 18:25:18;;;;;;;12.57;3.83;;;;;;;18.19;31.91;101191.32;5045971;56;1140743;-78
2023/06/02 18:30:23;;;;;;;9.33;2.47;;;;;;;18.05;32.47;101192.69;5116668;56;1140678;-78
2023/06/02 18:35:29;;;;;;;5.22;2.67;;;;;;;17.95;32.72;101191.08;5040478;56;1138532;-73
2023/06/02 18:40:35;;;;;;;6.35;1.37;;;;;;;17.84;33.24;101191.64;5030260;56;1138630;-73
2023/06/02 18:45:40;;;;;;;5.33;2.00;;;;;;;17.70;33.38;101198.83;5126811;56;1138613;-73
2023/06/02 18:50:47;;;;;;;5.03;1.47;;;;;;;17.61;33.67;101207.69;5094604;56;1138691;-77
2023/06/02 18:55:53;;;;;;;3.92;1.75;;;;;;;17.51;33.74;101218.94;5110746;56;1138625;-77
2023/06/02 19:01:00;;;;;;;3.72;1.40;;;;;;;17.42;34.08;101225.98;5129272;56;1138822;-71
2023/06/02 19:06:06;;;;;;;9.43;2.12;;;;;;;17.34;34.25;101231.23;5105662;56;1138924;-72
2023/06/02 19:11:12;;;;;;;9.60;2.70;;;;;;;17.19;34.61;101233.53;5129390;55;1138546;-76
2023/06/02 19:16:17;;;;;;;9.70;4.58;;;;;;;17.03;34.86;101241.30;5130816;55;1138742;-76
2023/06/02 19:21:23;;;;;;;6.97;2.50;;;;;;;16.90;35.46;101250.59;5151329;55;1138556;-77
2023/06/02 19:26:29;;;;;;;11.28;2.00;;;;;;;16.74;35.50;101249.34;5129902;55;1138611;-77
2023/06/02 19:31:35;;;;;;;6.87;1.70;;;;;;;16.62;35.54;101260.27;5115976;55;1140607;-77
2023/06/02 19:36:41;;;;;;;4.28;1.58;;;;;;;16.51;35.74;101267.41;5112871;55;1138555;-75
2023/06/02 19:41:46;;;;;;;14.03;2.07;;;;;;;16.42;36.11;101268.75;5086850;55;1138633;-77
2023/06/02 19:46:52;;;;;;;12.17;3.10;;;;;;;16.29;36.35;101275.69;5089193;55;1140875;-76
2023/06/02 19:51:58;;;;;;;9.80;1.80;;;;;;;16.19;36.85;101279.65;5106709;55;1140923;-74
2023/06/02 19:57:03;;;;;;;5.57;1.83;;;;;;;16.08;37.22;101285.59;5096113;55;1138866;-75
2023/06/02 20:02:10;;;;;;;9.75;3.67;;;;;;;15.93;37.40;101301.62;5089920;55;1138804;-74
2023/06/02 20:07:15;;;;;;;10.77;2.07;;;;;;;15.88;37.97;101298.53;5087049;55;1138797;-77
2023/06/02 20:12:23;;;;;;;15.57;2.50;;;;;;;15.69;38.41;101299.28;5115380;55;1140929;-72
2023/06/02 20:17:29;;;;;;;11.13;2.67;;;;;;;15.51;38.67;101307.49;5038414;56;1140704;-78
2023/06/02 20:22:34;;;;;;;13.33;2.10;;;;;;;15.47;39.05;101309.56;5030568;56;1140788;-77
2023/06/02 20:27:40;;;;;;;12.33;3.23;;;;;;;15.34;39.53;101319.11;5174514;55;1140631;-75
2023/06/02 20:32:46;;;;;;;12.30;2.67;;;;;;;15.19;39.99;101319.55;5174464;55;1140727;-77
2023/06/02 20:37:51;;;;;;;15.63;3.13;;;;;;;15.00;40.34;101333.56;5194338;55;1140517;-73
2023/06/02 20:42:57;;;;;;;7.47;3.07;;;;;;;14.89;40.83;101333.13;5214532;55;1140881;-75
2023/06/02 20:48:03;;;;;;;9.47;3.30;;;;;;;14.80;41.26;101341.05;5194700;55;1138604;-73
2023/06/02 20:53:08;;;;;;;9.68;2.87;;;;;;;14.71;41.58;101350.61;5114771;55;1138760;-76
2023/06/02 20:58:14;;;;;;;10.70;2.30;;;;;;;14.57;42.21;101357.06;5012382;56;1138629;-78
2023/06/02 21:03:19;;;;;;;5.85;2.22;;;;;;;14.44;42.68;101359.03;5054525;57;1140698;-74
2023/06/02 21:08:25;;;;;;;4.33;1.33;;;;;;;14.32;43.04;101366.16;5034936;56;1138661;-78
2023/06/02 21:13:30;;;;;;;3.87;2.10;;;;;;;14.21;43.59;101372.80;5049732;56;1138621;-78
2023/06/02 21:18:36;;;;;;;7.10;1.60;;;;;;;14.12;44.20;101379.34;5075801;56;1138894;-79
2023/06/02 21:23:42;;;;;;;3.17;1.10;;;;;;;14.01;44.85;101384.17;5056036;56;1139001;-78
2023/06/02 21:28:47;;;;;;;2.83;1.50;;;;;;;13.85;44.99;101386.33;4897292;56;1138882;-74
2023/06/02 21:33:53;;;;;;;4.97;1.17;;;;;;;13.62;45.64;101395.58;5006142;56;1138757;-77
2023/06/02 21:38:58;;;;;;;8.30;1.40;;;;;;;13.49;46.32;101399.29;4953747;56;1138532;-75
2023/06/02 21:44:04;;;;;;;3.20;1.43;;;;;;;13.30;47.35;101407.80;4970530;56;1138839;-74
2023/06/02 21:49:10;;;;;;;2.30;1.00;;;;;;;13.09;48.67;101410.70;5102081;56;1138763;-80
2023/06/02 21:54:15;;;;;;;1.67;1.00;;;;;;;12.84;48.70;101408.98;5026809;56;1138577;-75
2023/06/02 21:59:21;;;;;;;5.47;1.10;;;;;;;12.68;49.93;101421.19;4962333;57;1138436;-81
2023/06/02 22:04:27;;;;;;;2.00;0.70;;;;;;;12.53;50.40;101424.94;4974984;57;1138546;-76
2023/06/02 22:09:32;;;;;;;5.50;1.23;;;;;;;12.53;51.45;101428.44;4966363;56;1138758;-73
2023/06/02 22:14:38;;;;;;;2.33;1.10;;;;;;;12.44;51.43;101442.38;5083902;56;1138670;-78
2023/06/02 22:19:43;;;;;;;5.33;1.40;;;;;;;12.40;51.79;101443.53;5070800;57;1138575;-74
2023/06/02 22:24:49;;;;;;;13.67;1.80;;;;;;;12.40;52.42;101442.69;5089361;57;1138927;-78
2023/06/02 22:29:55;;;;;;;5.53;1.70;;;;;;;12.43;52.44;101444.66;5033085;57;1140832;-75
2023/06/02 22:35:00;;;;;;;1.43;1.00;;;;;;;12.40;52.27;101445.34;5079533;56;1138648;-77
2023/06/02 22:40:07;;;;;;;3.40;1.20;;;;;;;12.38;52.43;101443.27;5134364;56;1138661;-75
2023/06/02 22:45:12;;;;;;;5.37;1.70;;;;;;;12.23;52.71;101447.37;4936604;58;1138682;-79
2023/06/02 22:50:18;;;;;;;7.43;1.40;;;;;;;12.10;53.15;101452.31;5030536;57;1138885;-80
2023/06/02 22:55:23;;;;;;;4.00;1.67;;;;;;;11.98;53.68;101450.03;4959148;57;1138928;-75
2023/06/02 23:00:29;;;;;;;3.03;1.43;;;;;;;11.99;54.00;101455.70;4952100;58;1138806;-75
2023/06/02 23:05:35;;;;;;;4.77;1.57;;;;;;;12.00;53.97;101447.28;5019001;57;1139200;-76